sensor_id;sensor_type;location;lat;lon;timestamp;pressure;altitude;pressure_sealevel;temperature;humidity
20228;BME280;12195;55.790;37.572;2023-03-18T00:00:20;101447.36;;;-1.10;46.68
20228;BME280;12195;55.790;37.572;2023-03-18T00:02:52;101459.41;;;-1.10;46.65
20228;BME280;12195;55.790;37.572;2023-03-18T00:05:24;101459.41;;;-1.10;46.77
20228;BME280;12195;55.790;37.572;2023-03-18T00:07:56;101458.48;;;-1.12;46.93
20228;BME280;12195;55.790;37.572;2023-03-18T00:10:29;101461.06;;;-1.12;46.88
20228;BME280;12195;55.790;37.572;2023-03-18T00:13:02;101465.37;;;-1.13;46.73
20228;BME280;12195;55.790;37.572;2023-03-18T00:15:36;101457.59;;;-1.14;46.85
20228;BME280;12195;55.790;37.572;2023-03-18T00:18:09;101456.72;;;-1.15;46.86
20228;BME280;12195;55.790;37.572;2023-03-18T00:20:41;101466.14;;;-1.17;46.74
20228;BME280;12195;55.790;37.572;2023-03-18T00:23:15;101465.22;;;-1.19;47.03
20228;BME280;12195;55.790;37.572;2023-03-18T00:25:48;101465.22;;;-1.19;47.16
20228;BME280;12195;55.790;37.572;2023-03-18T00:28:22;101466.00;;;-1.23;47.66
20228;BME280;12195;55.790;37.572;2023-03-18T00:31:00;101465.11;;;-1.25;47.40
20228;BME280;12195;55.790;37.572;2023-03-18T00:33:28;101463.31;;;-1.27;47.64
20228;BME280;12195;55.790;37.572;2023-03-18T00:36:01;101470.20;;;-1.28;47.68
20228;BME280;12195;55.790;37.572;2023-03-18T00:38:34;101472.77;;;-1.28;47.69
20228;BME280;12195;55.790;37.572;2023-03-18T00:41:07;101475.27;;;-1.31;47.72
20228;BME280;12195;55.790;37.572;2023-03-18T00:43:44;101481.27;;;-1.32;47.93
20228;BME280;12195;55.790;37.572;2023-03-18T00:46:19;101470.05;;;-1.34;48.25
20228;BME280;12195;55.790;37.572;2023-03-18T00:48:54;101476.84;;;-1.37;48.35
20228;BME280;12195;55.790;37.572;2023-03-18T00:51:28;101475.08;;;-1.40;48.54
20228;BME280;12195;55.790;37.572;2023-03-18T00:54:04;101476.73;;;-1.42;48.51
20228;BME280;12195;55.790;37.572;2023-03-18T00:56:38;101477.55;;;-1.44;48.59
20228;BME280;12195;55.790;37.572;2023-03-18T00:59:11;101479.20;;;-1.48;48.81
20228;BME280;12195;55.790;37.572;2023-03-18T01:01:43;101475.81;;;-1.45;48.66
20228;BME280;12195;55.790;37.572;2023-03-18T01:04:17;101483.58;;;-1.44;48.65
20228;BME280;12195;55.790;37.572;2023-03-18T01:06:50;101485.31;;;-1.43;48.94
20228;BME280;12195;55.790;37.572;2023-03-18T01:09:22;101486.16;;;-1.44;48.76
20228;BME280;12195;55.790;37.572;2023-03-18T01:11:54;101483.55;;;-1.45;48.97
20228;BME280;12195;55.790;37.572;2023-03-18T01:14:26;101475.73;;;-1.48;49.06
20228;BME280;12195;55.790;37.572;2023-03-18T01:16:59;101491.19;;;-1.48;49.57
20228;BME280;12195;55.790;37.572;2023-03-18T01:19:31;101492.03;;;-1.49;49.61
20228;BME280;12195;55.790;37.572;2023-03-18T01:22:04;101490.34;;;-1.49;49.43
20228;BME280;12195;55.790;37.572;2023-03-18T01:24:38;101493.80;;;-1.47;49.34
20228;BME280;12195;55.790;37.572;2023-03-18T01:27:12;101494.61;;;-1.49;49.51
20228;BME280;12195;55.790;37.572;2023-03-18T01:29:45;101501.48;;;-1.50;49.61
20228;BME280;12195;55.790;37.572;2023-03-18T01:32:19;101501.45;;;-1.51;49.67
20228;BME280;12195;55.790;37.572;2023-03-18T01:34:51;101511.70;;;-1.53;50.01
20228;BME280;12195;55.790;37.572;2023-03-18T01:37:23;101497.10;;;-1.54;50.08
20228;BME280;12195;55.790;37.572;2023-03-18T01:39:57;101514.25;;;-1.54;50.08
20228;BME280;12195;55.790;37.572;2023-03-18T01:42:30;101516.82;;;-1.54;49.89
20228;BME280;12195;55.790;37.572;2023-03-18T01:45:21;101513.36;;;-1.55;50.18
20228;BME280;12195;55.790;37.572;2023-03-18T01:47:56;101515.09;;;-1.55;50.00
20228;BME280;12195;55.790;37.572;2023-03-18T01:50:31;101520.28;;;-1.54;49.84
20228;BME280;12195;55.790;37.572;2023-03-18T01:53:08;101526.32;;;-1.52;49.57
20228;BME280;12195;55.790;37.572;2023-03-18T01:55:40;101528.05;;;-1.51;49.63
20228;BME280;12195;55.790;37.572;2023-03-18T01:58:21;101530.62;;;-1.51;49.50
20228;BME280;12195;55.790;37.572;2023-03-18T02:01:00;101525.47;;;-1.51;49.18
20228;BME280;12195;55.790;37.572;2023-03-18T02:03:33;101533.16;;;-1.54;49.29
20228;BME280;12195;55.790;37.572;2023-03-18T02:06:06;101538.30;;;-1.54;49.26
20228;BME280;12195;55.790;37.572;2023-03-18T02:08:39;101536.54;;;-1.55;49.44
20228;BME280;12195;55.790;37.572;2023-03-18T02:11:11;101535.61;;;-1.58;49.50
20228;BME280;12195;55.790;37.572;2023-03-18T02:13:45;101543.30;;;-1.60;49.74
20228;BME280;12195;55.790;37.572;2023-03-18T02:16:24;101546.67;;;-1.62;49.79
20228;BME280;12195;55.790;37.572;2023-03-18T02:19:06;101544.02;;;-1.65;49.97
20228;BME280;12195;55.790;37.572;2023-03-18T02:21:57;101550.77;;;-1.70;50.06
20228;BME280;12195;55.790;37.572;2023-03-18T02:24:35;101557.59;;;-1.72;50.18
20228;BME280;12195;55.790;37.572;2023-03-18T02:27:19;101560.13;;;-1.74;50.46
20228;BME280;12195;55.790;37.572;2023-03-18T02:29:55;101564.31;;;-1.77;50.52
20228;BME280;12195;55.790;37.572;2023-03-18T02:32:29;101563.38;;;-1.81;50.62
20228;BME280;12195;55.790;37.572;2023-03-18T02:35:06;101564.98;;;-1.86;50.75
20228;BME280;12195;55.790;37.572;2023-03-18T02:37:39;101556.23;;;-1.92;51.08
20228;BME280;12195;55.790;37.572;2023-03-18T02:40:19;101566.41;;;-1.97;51.54
20228;BME280;12195;55.790;37.572;2023-03-18T02:42:52;101567.24;;;-1.98;51.57
20228;BME280;12195;55.790;37.572;2023-03-18T02:45:34;101569.77;;;-1.99;51.67
20228;BME280;12195;55.790;37.572;2023-03-18T02:48:05;101579.19;;;-2.00;51.80
20228;BME280;12195;55.790;37.572;2023-03-18T02:50:39;101575.72;;;-2.02;52.15
20228;BME280;12195;55.790;37.572;2023-03-18T02:53:12;101584.19;;;-2.06;52.22
20228;BME280;12195;55.790;37.572;2023-03-18T02:55:45;101578.95;;;-2.09;52.22
20228;BME280;12195;55.790;37.572;2023-03-18T02:58:17;101581.52;;;-2.09;52.31
20228;BME280;12195;55.790;37.572;2023-03-18T03:00:50;101579.80;;;-2.10;52.15
20228;BME280;12195;55.790;37.572;2023-03-18T03:03:23;101586.58;;;-2.12;52.35
20228;BME280;12195;55.790;37.572;2023-03-18T03:05:56;101582.19;;;-2.16;52.65
20228;BME280;12195;55.790;37.572;2023-03-18T03:08:28;101594.11;;;-2.19;52.89
20228;BME280;12195;55.790;37.572;2023-03-18T03:11:01;101591.41;;;-2.24;53.00
20228;BME280;12195;55.790;37.572;2023-03-18T03:13:34;101594.91;;;-2.22;53.27
20228;BME280;12195;55.790;37.572;2023-03-18T03:16:08;101595.70;;;-2.24;53.20
20228;BME280;12195;55.790;37.572;2023-03-18T03:18:41;101597.38;;;-2.25;53.15
20228;BME280;12195;55.790;37.572;2023-03-18T03:21:14;101600.84;;;-2.24;53.21
20228;BME280;12195;55.790;37.572;2023-03-18T03:23:46;101597.47;;;-2.22;53.17
20228;BME280;12195;55.790;37.572;2023-03-18T03:26:19;101600.94;;;-2.21;53.13
20228;BME280;12195;55.790;37.572;2023-03-18T03:28:51;101603.45;;;-2.23;53.24
20228;BME280;12195;55.790;37.572;2023-03-18T03:31:23;101600.94;;;-2.21;53.26
20228;BME280;12195;55.790;37.572;2023-03-18T03:33:57;101604.36;;;-2.21;53.35
20228;BME280;12195;55.790;37.572;2023-03-18T03:36:29;101602.66;;;-2.20;53.23
20228;BME280;12195;55.790;37.572;2023-03-18T03:39:01;101604.44;;;-2.18;53.32
20228;BME280;12195;55.790;37.572;2023-03-18T03:41:35;101596.73;;;-2.18;53.47
20228;BME280;12195;55.790;37.572;2023-03-18T03:44:07;101601.03;;;-2.17;53.56
20228;BME280;12195;55.790;37.572;2023-03-18T03:46:39;101603.61;;;-2.17;53.67
20228;BME280;12195;55.790;37.572;2023-03-18T03:49:13;101605.43;;;-2.13;53.39
20228;BME280;12195;55.790;37.572;2023-03-18T03:51:45;101600.47;;;-2.07;53.33
20228;BME280;12195;55.790;37.572;2023-03-18T03:54:17;101603.98;;;-2.03;53.42
20228;BME280;12195;55.790;37.572;2023-03-18T03:56:50;101609.26;;;-1.99;53.47
20228;BME280;12195;55.790;37.572;2023-03-18T03:59:22;101606.73;;;-1.96;53.40
20228;BME280;12195;55.790;37.572;2023-03-18T04:02:03;101608.64;;;-1.89;53.09
20228;BME280;12195;55.790;37.572;2023-03-18T04:04:35;101600.30;;;-1.80;53.09
20228;BME280;12195;55.790;37.572;2023-03-18T04:07:09;101608.16;;;-1.74;52.97
20228;BME280;12195;55.790;37.572;2023-03-18T04:09:41;101607.54;;;-1.64;52.61
20228;BME280;12195;55.790;37.572;2023-03-18T04:12:14;101608.59;;;-1.58;52.73
20228;BME280;12195;55.790;37.572;2023-03-18T04:14:49;101612.14;;;-1.53;52.27
20228;BME280;12195;55.790;37.572;2023-03-18T04:17:22;101617.42;;;-1.47;52.35
20228;BME280;12195;55.790;37.572;2023-03-18T04:19:54;101619.33;;;-1.40;52.66
20228;BME280;12195;55.790;37.572;2023-03-18T04:22:28;101622.11;;;-1.31;52.41
20228;BME280;12195;55.790;37.572;2023-03-18T04:25:01;101620.66;;;-1.20;52.43
20228;BME280;12195;55.790;37.572;2023-03-18T04:27:34;101622.56;;;-1.11;52.03
20228;BME280;12195;55.790;37.572;2023-03-18T04:30:08;101627.06;;;-1.03;51.88
20228;BME280;12195;55.790;37.572;2023-03-18T04:32:42;101632.42;;;-0.94;51.88
20228;BME280;12195;55.790;37.572;2023-03-18T04:35:15;101629.23;;;-0.82;51.65
20228;BME280;12195;55.790;37.572;2023-03-18T04:37:47;101629.45;;;-0.73;51.76
20228;BME280;12195;55.790;37.572;2023-03-18T04:40:20;101633.08;;;-0.64;51.54
20228;BME280;12195;55.790;37.572;2023-03-18T04:42:52;101637.61;;;-0.54;51.56
20228;BME280;12195;55.790;37.572;2023-03-18T04:45:26;101638.70;;;-0.43;51.32
20228;BME280;12195;55.790;37.572;2023-03-18T04:48:01;101642.35;;;-0.32;50.84
20228;BME280;12195;55.790;37.572;2023-03-18T04:50:35;101639.12;;;-0.22;50.64
20228;BME280;12195;55.790;37.572;2023-03-18T04:53:08;101641.98;;;-0.08;50.10
20228;BME280;12195;55.790;37.572;2023-03-18T04:55:40;101644.08;;;0.13;50.09
20228;BME280;12195;55.790;37.572;2023-03-18T04:58:14;101643.23;;;0.13;49.68
20228;BME280;12195;55.790;37.572;2023-03-18T05:00:48;101643.39;;;0.23;49.33
20228;BME280;12195;55.790;37.572;2023-03-18T05:03:22;101647.04;;;0.34;48.89
20228;BME280;12195;55.790;37.572;2023-03-18T05:05:54;101643.79;;;0.44;48.94
20228;BME280;12195;55.790;37.572;2023-03-18T05:08:28;101645.70;;;0.55;48.51
20228;BME280;12195;55.790;37.572;2023-03-18T05:11:02;101648.18;;;1.03;47.99
20228;BME280;12195;55.790;37.572;2023-03-18T05:13:34;101642.73;;;2.16;45.70
20228;BME280;12195;55.790;37.572;2023-03-18T05:16:08;101639.98;;;2.98;43.04
20228;BME280;12195;55.790;37.572;2023-03-18T05:18:41;101643.83;;;3.63;41.38
20228;BME280;12195;55.790;37.572;2023-03-18T05:21:14;101644.86;;;4.19;39.81
20228;BME280;12195;55.790;37.572;2023-03-18T05:23:46;101647.50;;;4.50;39.31
20228;BME280;12195;55.790;37.572;2023-03-18T05:26:18;101644.06;;;4.86;38.92
20228;BME280;12195;55.790;37.572;2023-03-18T05:28:51;101647.45;;;5.33;37.54
20228;BME280;12195;55.790;37.572;2023-03-18T05:31:34;101652.62;;;5.43;37.32
20228;BME280;12195;55.790;37.572;2023-03-18T05:34:07;101648.33;;;5.27;37.25
20228;BME280;12195;55.790;37.572;2023-03-18T05:36:39;101646.64;;;5.02;37.37
20228;BME280;12195;55.790;37.572;2023-03-18T05:39:12;101649.17;;;5.34;37.28
20228;BME280;12195;55.790;37.572;2023-03-18T05:41:44;101648.17;;;5.86;36.28
20228;BME280;12195;55.790;37.572;2023-03-18T05:44:18;101643.28;;;6.69;34.85
20228;BME280;12195;55.790;37.572;2023-03-18T05:46:51;101651.47;;;7.28;33.65
20228;BME280;12195;55.790;37.572;2023-03-18T05:49:25;101650.37;;;7.46;32.72
20228;BME280;12195;55.790;37.572;2023-03-18T05:51:58;101646.94;;;7.44;32.82
20228;BME280;12195;55.790;37.572;2023-03-18T05:54:32;101638.28;;;7.39;32.64
20228;BME280;12195;55.790;37.572;2023-03-18T05:57:05;101648.13;;;7.11;32.63
20228;BME280;12195;55.790;37.572;2023-03-18T05:59:38;101651.27;;;6.50;33.24
20228;BME280;12195;55.790;37.572;2023-03-18T06:02:11;101651.61;;;5.90;34.18
20228;BME280;12195;55.790;37.572;2023-03-18T06:04:43;101655.23;;;5.40;35.38
20228;BME280;12195;55.790;37.572;2023-03-18T06:07:15;101658.80;;;4.99;35.93
20228;BME280;12195;55.790;37.572;2023-03-18T06:09:48;101663.14;;;4.70;36.58
20228;BME280;12195;55.790;37.572;2023-03-18T06:12:20;101665.72;;;4.71;36.43
20228;BME280;12195;55.790;37.572;2023-03-18T06:14:54;101664.85;;;5.19;36.16
20228;BME280;12195;55.790;37.572;2023-03-18T06:17:27;101662.80;;;6.14;34.76
20228;BME280;12195;55.790;37.572;2023-03-18T06:20:00;101661.34;;;6.96;33.58
20228;BME280;12195;55.790;37.572;2023-03-18T06:22:31;101670.47;;;7.42;32.62
20228;BME280;12195;55.790;37.572;2023-03-18T06:25:04;101664.96;;;7.68;31.87
20228;BME280;12195;55.790;37.572;2023-03-18T06:27:40;101663.91;;;7.84;32.01
20228;BME280;12195;55.790;37.572;2023-03-18T06:30:13;101665.04;;;8.31;31.06
20228;BME280;12195;55.790;37.572;2023-03-18T06:32:46;101660.85;;;8.76;30.23
20228;BME280;12195;55.790;37.572;2023-03-18T06:35:18;101661.14;;;9.11;30.12
20228;BME280;12195;55.790;37.572;2023-03-18T06:37:52;101661.65;;;9.75;28.84
20228;BME280;12195;55.790;37.572;2023-03-18T06:40:25;101654.33;;;10.69;27.75
20228;BME280;12195;55.790;37.572;2023-03-18T06:42:57;101654.00;;;11.49;26.21
20228;BME280;12195;55.790;37.572;2023-03-18T06:45:35;101653.11;;;12.11;25.22
20228;BME280;12195;55.790;37.572;2023-03-18T06:48:09;101659.66;;;12.82;24.39
20228;BME280;12195;55.790;37.572;2023-03-18T06:50:42;101650.61;;;14.11;22.52
20228;BME280;12195;55.790;37.572;2023-03-18T06:53:16;101662.64;;;15.67;25.55
20228;BME280;12195;55.790;37.572;2023-03-18T06:55:50;101663.74;;;15.82;21.22
20228;BME280;12195;55.790;37.572;2023-03-18T06:58:25;101658.70;;;15.76;20.42
20228;BME280;12195;55.790;37.572;2023-03-18T07:01:02;101656.53;;;14.84;20.86
20228;BME280;12195;55.790;37.572;2023-03-18T07:03:36;101663.25;;;14.03;22.08
20228;BME280;12195;55.790;37.572;2023-03-18T07:06:09;101667.97;;;13.22;22.36
20228;BME280;12195;55.790;37.572;2023-03-18T07:08:41;101660.73;;;12.49;22.90
20228;BME280;12195;55.790;37.572;2023-03-18T07:11:14;101671.25;;;11.60;23.23
20228;BME280;12195;55.790;37.572;2023-03-18T07:13:47;101667.72;;;10.59;24.62
20228;BME280;12195;55.790;37.572;2023-03-18T07:16:21;101675.02;;;9.61;25.21
20228;BME280;12195;55.790;37.572;2023-03-18T07:18:54;101673.92;;;8.77;26.80
20228;BME280;12195;55.790;37.572;2023-03-18T07:21:28;101676.63;;;8.09;27.16
20228;BME280;12195;55.790;37.572;2023-03-18T07:24:00;101677.30;;;7.54;27.97
20228;BME280;12195;55.790;37.572;2023-03-18T07:26:34;101674.25;;;7.11;28.58
20228;BME280;12195;55.790;37.572;2023-03-18T07:29:07;101674.58;;;6.77;29.03
20228;BME280;12195;55.790;37.572;2023-03-18T07:31:39;101677.95;;;6.86;30.32
20228;BME280;12195;55.790;37.572;2023-03-18T07:34:13;101677.44;;;6.39;30.28
20228;BME280;12195;55.790;37.572;2023-03-18T07:36:47;101678.41;;;6.22;29.99
20228;BME280;12195;55.790;37.572;2023-03-18T07:39:20;101677.63;;;6.05;29.35
20228;BME280;12195;55.790;37.572;2023-03-18T07:41:52;101673.31;;;5.96;29.69
20228;BME280;12195;55.790;37.572;2023-03-18T07:44:26;101666.39;;;5.80;29.90
20228;BME280;12195;55.790;37.572;2023-03-18T07:46:59;101679.46;;;5.72;29.89
20228;BME280;12195;55.790;37.572;2023-03-18T07:49:31;101678.62;;;5.66;30.01
20228;BME280;12195;55.790;37.572;2023-03-18T07:52:03;101675.16;;;5.64;30.24
20228;BME280;12195;55.790;37.572;2023-03-18T07:54:35;101681.22;;;5.63;29.67
20228;BME280;12195;55.790;37.572;2023-03-18T07:57:08;101677.77;;;5.64;30.91
20228;BME280;12195;55.790;37.572;2023-03-18T07:59:40;101678.62;;;5.63;30.00
20228;BME280;12195;55.790;37.572;2023-03-18T08:02:13;101675.16;;;5.64;29.67
20228;BME280;12195;55.790;37.572;2023-03-18T08:04:47;101671.68;;;5.62;28.62
20228;BME280;12195;55.790;37.572;2023-03-18T08:07:19;101678.62;;;5.63;28.18
20228;BME280;12195;55.790;37.572;2023-03-18T08:09:52;101678.62;;;5.63;27.20
20228;BME280;12195;55.790;37.572;2023-03-18T08:12:25;101677.77;;;5.64;27.43
20228;BME280;12195;55.790;37.572;2023-03-18T08:14:59;101673.41;;;5.63;27.46
20228;BME280;12195;55.790;37.572;2023-03-18T08:17:31;101676.89;;;5.65;27.74
20228;BME280;12195;55.790;37.572;2023-03-18T08:20:04;101678.62;;;5.69;26.78
20228;BME280;12195;55.790;37.572;2023-03-18T08:22:36;101669.91;;;5.73;25.33
20228;BME280;12195;55.790;37.572;2023-03-18T08:25:09;101674.24;;;5.77;25.75
20228;BME280;12195;55.790;37.572;2023-03-18T08:27:42;101677.70;;;5.79;25.55
20228;BME280;12195;55.790;37.572;2023-03-18T08:30:14;101676.84;;;5.83;25.29
20228;BME280;12195;55.790;37.572;2023-03-18T08:32:46;101670.74;;;5.92;24.90
20228;BME280;12195;55.790;37.572;2023-03-18T08:35:19;101667.30;;;5.81;25.32
20228;BME280;12195;55.790;37.572;2023-03-18T08:37:52;101666.43;;;5.74;25.28
20228;BME280;12195;55.790;37.572;2023-03-18T08:40:25;101669.03;;;5.72;25.46
20228;BME280;12195;55.790;37.572;2023-03-18T08:42:57;101667.31;;;5.71;26.37
20228;BME280;12195;55.790;37.572;2023-03-18T08:45:30;101670.76;;;5.75;26.85
20228;BME280;12195;55.790;37.572;2023-03-18T08:48:03;101668.19;;;5.81;26.75
20228;BME280;12195;55.790;37.572;2023-03-18T08:50:36;101665.53;;;5.87;26.79
20228;BME280;12195;55.790;37.572;2023-03-18T08:53:09;101670.74;;;5.92;26.54
20228;BME280;12195;55.790;37.572;2023-03-18T08:55:42;101668.98;;;5.95;26.75
20228;BME280;12195;55.790;37.572;2023-03-18T08:58:14;101666.36;;;6.00;26.01
20228;BME280;12195;55.790;37.572;2023-03-18T09:00:47;101663.70;;;6.07;26.48
20228;BME280;12195;55.790;37.572;2023-03-18T09:03:20;101659.33;;;6.12;27.01
20228;BME280;12195;55.790;37.572;2023-03-18T09:05:54;101650.61;;;6.15;25.78
20228;BME280;12195;55.790;37.572;2023-03-18T09:08:27;101653.22;;;6.16;26.32
20228;BME280;12195;55.790;37.572;2023-03-18T09:11:00;101648.00;;;6.18;25.70
20228;BME280;12195;55.790;37.572;2023-03-18T09:13:33;101655.77;;;6.25;25.64
20228;BME280;12195;55.790;37.572;2023-03-18T09:16:07;101652.31;;;6.26;25.33
20228;BME280;12195;55.790;37.572;2023-03-18T09:18:40;101645.33;;;6.27;25.62
20228;BME280;12195;55.790;37.572;2023-03-18T09:21:14;101644.44;;;6.29;25.49
20228;BME280;12195;55.790;37.572;2023-03-18T09:23:47;101646.16;;;6.33;25.36
20228;BME280;12195;55.790;37.572;2023-03-18T09:26:20;101643.53;;;6.38;24.65
20228;BME280;12195;55.790;37.572;2023-03-18T09:28:52;101636.53;;;6.43;24.11
20228;BME280;12195;55.790;37.572;2023-03-18T09:31:24;101642.62;;;6.45;24.36
20228;BME280;12195;55.790;37.572;2023-03-18T09:33:57;101634.78;;;6.46;24.43
20228;BME280;12195;55.790;37.572;2023-03-18T09:36:30;101628.67;;;6.50;24.51
20228;BME280;12195;55.790;37.572;2023-03-18T09:39:02;101635.60;;;6.53;23.24
20228;BME280;12195;55.790;37.572;2023-03-18T09:44:35;101631.30;;;6.46;23.20
20228;BME280;12195;55.790;37.572;2023-03-18T09:50:08;101624.38;;;6.39;22.94
20228;BME280;12195;55.790;37.572;2023-03-18T09:52:44;101624.39;;;6.37;23.77
20228;BME280;12195;55.790;37.572;2023-03-18T09:57:50;101619.22;;;6.34;23.73
20228;BME280;12195;55.790;37.572;2023-03-18T10:00:31;101612.23;;;6.35;23.91
20228;BME280;12195;55.790;37.572;2023-03-18T10:03:09;101609.61;;;6.38;23.73
20228;BME280;12195;55.790;37.572;2023-03-18T10:11:30;101597.39;;;6.43;23.79
20228;BME280;12195;55.790;37.572;2023-03-18T10:16:51;101600.83;;;6.48;23.00
20228;BME280;12195;55.790;37.572;2023-03-18T10:19:21;101591.26;;;6.50;24.40
20228;BME280;12195;55.790;37.572;2023-03-18T10:24:52;101588.56;;;6.59;24.87
20228;BME280;12195;55.790;37.572;2023-03-18T10:36:08;101572.87;;;6.65;25.37
20228;BME280;12195;55.790;37.572;2023-03-18T10:38:43;101578.02;;;6.71;25.72
20228;BME280;12195;55.790;37.572;2023-03-18T10:43:54;101575.41;;;6.71;24.19
20228;BME280;12195;55.790;37.572;2023-03-18T10:46:26;101564.13;;;6.69;24.12
20228;BME280;12195;55.790;37.572;2023-03-18T10:49:08;101580.51;;;6.84;25.93
20228;BME280;12195;55.790;37.572;2023-03-18T10:52:51;101570.20;;;6.69;23.87
20228;BME280;12195;55.790;37.572;2023-03-18T10:54:44;101571.10;;;6.65;23.73
20228;BME280;12195;55.790;37.572;2023-03-18T10:57:22;101567.65;;;6.65;23.84
20228;BME280;12195;55.790;37.572;2023-03-18T10:59:56;101561.55;;;6.64;23.52
20228;BME280;12195;55.790;37.572;2023-03-18T11:02:32;101565.88;;;6.65;24.01
20228;BME280;12195;55.790;37.572;2023-03-18T11:05:23;101558.91;;;6.69;24.76
20228;BME280;12195;55.790;37.572;2023-03-18T11:08:06;101558.91;;;6.69;24.48
20228;BME280;12195;55.790;37.572;2023-03-18T11:10:45;101558.06;;;6.64;23.55
20228;BME280;12195;55.790;37.572;2023-03-18T11:13:19;101556.36;;;6.60;23.52
20228;BME280;12195;55.790;37.572;2023-03-18T11:15:56;101556.35;;;6.61;24.22
20228;BME280;12195;55.790;37.572;2023-03-18T11:18:29;101556.41;;;6.58;23.66
20228;BME280;12195;55.790;37.572;2023-03-18T11:21:04;101557.25;;;6.57;23.71
20228;BME280;12195;55.790;37.572;2023-03-18T11:23:38;101550.33;;;6.53;24.05
20228;BME280;12195;55.790;37.572;2023-03-18T11:26:22;101559.05;;;6.52;24.28
20228;BME280;12195;55.790;37.572;2023-03-18T11:28:57;101550.38;;;6.50;24.23
20228;BME280;12195;55.790;37.572;2023-03-18T11:31:30;101548.63;;;6.51;24.74
20228;BME280;12195;55.790;37.572;2023-03-18T11:34:05;101553.00;;;6.50;23.99
20228;BME280;12195;55.790;37.572;2023-03-18T11:36:37;101549.48;;;6.54;25.01
20228;BME280;12195;55.790;37.572;2023-03-18T11:39:11;101543.38;;;6.54;24.06
20228;BME280;12195;55.790;37.572;2023-03-18T11:41:44;101543.38;;;6.55;23.86
20228;BME280;12195;55.790;37.572;2023-03-18T11:44:26;101547.70;;;6.58;24.80
20228;BME280;12195;55.790;37.572;2023-03-18T11:47:05;101544.20;;;6.57;24.46
20228;BME280;12195;55.790;37.572;2023-03-18T11:49:39;101542.47;;;6.59;24.17
20228;BME280;12195;55.790;37.572;2023-03-18T11:53:09;101544.19;;;6.60;24.36
20228;BME280;12195;55.790;37.572;2023-03-18T11:55:21;101538.09;;;6.60;24.01
20228;BME280;12195;55.790;37.572;2023-03-18T11:58:01;101530.25;;;6.61;25.02
20228;BME280;12195;55.790;37.572;2023-03-18T12:00:36;101540.69;;;6.63;24.99
20228;BME280;12195;55.790;37.572;2023-03-18T12:03:37;101538.95;;;6.63;24.23
20228;BME280;12195;55.790;37.572;2023-03-18T12:06:20;101537.20;;;6.62;23.97
20228;BME280;12195;55.790;37.572;2023-03-18T12:12:07;101533.62;;;6.75;24.96
20228;BME280;12195;55.790;37.572;2023-03-18T12:14:49;101534.44;;;6.79;25.58
20228;BME280;12195;55.790;37.572;2023-03-18T12:23:17;101523.07;;;6.84;23.73
20228;BME280;12195;55.790;37.572;2023-03-18T12:25:52;101512.63;;;6.84;24.60
20228;BME280;12195;55.790;37.572;2023-03-18T12:28:39;101514.34;;;6.85;23.92
20228;BME280;12195;55.790;37.572;2023-03-18T12:34:22;101502.97;;;6.92;23.28
20228;BME280;12195;55.790;37.572;2023-03-18T12:37:00;101495.05;;;6.98;24.20
20228;BME280;12195;55.790;37.572;2023-03-18T12:39:59;101503.50;;;7.20;23.50
20228;BME280;12195;55.790;37.572;2023-03-18T12:42:37;101493.79;;;7.91;23.52
20228;BME280;12195;55.790;37.572;2023-03-18T12:45:26;101485.16;;;9.68;22.05
20228;BME280;12195;55.790;37.572;2023-03-18T12:48:07;101479.70;;;12.51;19.51
20228;BME280;12195;55.790;37.572;2023-03-18T12:50:31;101462.48;;;15.43;16.37
20228;BME280;12195;55.790;37.572;2023-03-18T12:53:23;101464.56;;;18.06;14.36
20228;BME280;12195;55.790;37.572;2023-03-18T12:56:01;101454.86;;;19.64;13.07
20228;BME280;12195;55.790;37.572;2023-03-18T12:58:44;101444.59;;;21.27;11.55
20228;BME280;12195;55.790;37.572;2023-03-18T13:01:17;101447.13;;;22.71;11.18
20228;BME280;12195;55.790;37.572;2023-03-18T13:03:52;101438.61;;;23.98;10.40
20228;BME280;12195;55.790;37.572;2023-03-18T13:06:43;101429.61;;;25.22;9.28
20228;BME280;12195;55.790;37.572;2023-03-18T13:12:08;101428.89;;;26.56;8.56
20228;BME280;12195;55.790;37.572;2023-03-18T13:21:11;101420.64;;;28.99;7.24
20228;BME280;12195;55.790;37.572;2023-03-18T13:23:11;101419.63;;;29.60;7.35
20228;BME280;12195;55.790;37.572;2023-03-18T13:31:45;101412.45;;;29.51;6.83
20228;BME280;12195;55.790;37.572;2023-03-18T13:40:03;101398.23;;;29.57;6.89
20228;BME280;12195;55.790;37.572;2023-03-18T13:42:37;101396.80;;;29.70;6.66
20228;BME280;12195;55.790;37.572;2023-03-18T13:45:22;101398.17;;;29.41;6.84
20228;BME280;12195;55.790;37.572;2023-03-18T13:50:43;101396.20;;;28.91;6.78
20228;BME280;12195;55.790;37.572;2023-03-18T13:53:20;101384.27;;;28.33;6.91
20228;BME280;12195;55.790;37.572;2023-03-18T13:58:34;101378.78;;;28.60;7.18
20228;BME280;12195;55.790;37.572;2023-03-18T14:01:13;101372.97;;;28.55;7.28
20228;BME280;12195;55.790;37.572;2023-03-18T14:06:38;101375.13;;;28.09;7.43
20228;BME280;12195;55.790;37.572;2023-03-18T14:09:22;101378.12;;;27.61;7.58
20228;BME280;12195;55.790;37.572;2023-03-18T14:12:11;101369.87;;;26.72;7.97
20228;BME280;12195;55.790;37.572;2023-03-18T14:17:22;101376.37;;;22.73;9.38
20228;BME280;12195;55.790;37.572;2023-03-18T14:19:56;101371.91;;;20.34;10.49
20228;BME280;12195;55.790;37.572;2023-03-18T14:22:33;101380.23;;;18.08;12.04
20228;BME280;12195;55.790;37.572;2023-03-18T14:27:59;101383.12;;;14.66;14.92
20228;BME280;12195;55.790;37.572;2023-03-18T14:36:10;101385.02;;;11.70;17.98
20228;BME280;12195;55.790;37.572;2023-03-18T14:38:44;101384.36;;;11.07;18.30
20228;BME280;12195;55.790;37.572;2023-03-18T14:41:23;101385.19;;;10.47;18.65
20228;BME280;12195;55.790;37.572;2023-03-18T14:44:14;101384.83;;;9.95;19.23
20228;BME280;12195;55.790;37.572;2023-03-18T14:46:43;101384.26;;;9.48;19.99